Time;durP1;ratioP1;P1;durP2;ratioP2;P2;SDS_P1;SDS_P2;PMS_P1;PMS_P2;Temp;Humidity;BMP_temperature;BMP_pressure;BME280_temperature;BME280_humidity;BME280_pressure;Samples;Min_cycle;Max_cycle;Signal;HPM_P1;HPM_P2
2023/06/07 00:00:17;;;;;;;6.13;4.53;;;;;;;;;;5067006;28;20052;-76
2023/06/07 00:02:43;;;;;;;7.30;4.90;;;;;;;;;;5067260;28;20024;-76
2023/06/07 00:05:09;;;;;;;6.30;4.38;;;;;;;;;;5067887;28;20483;-76
2023/06/07 00:07:35;;;;;;;6.07;4.47;;;;;;;;;;5068014;28;20105;-76
2023/06/07 00:10:02;;;;;;;6.55;4.63;;;;;;;;;;5067649;28;20036;-76
2023/06/07 00:12:28;;;;;;;7.40;4.40;;;;;;;;;;5067464;28;20025;-76
2023/06/07 00:14:54;;;;;;;5.50;4.38;;;;;;;;;;5070937;28;20035;-76
2023/06/07 00:17:20;;;;;;;7.10;4.40;;;;;;;;;;5071659;28;20369;-76
2023/06/07 00:19:46;;;;;;;6.95;4.10;;;;;;;;;;5071187;28;20037;-76
2023/06/07 00:22:13;;;;;;;8.80;4.65;;;;;;;;;;5070734;28;20033;-76
2023/06/07 00:24:39;;;;;;;6.70;4.57;;;;;;;;;;5070827;28;20024;-76
2023/06/07 00:27:05;;;;;;;7.32;4.25;;;;;;;;;;5071757;28;20021;-76
2023/06/07 00:29:30;;;;;;;6.68;4.28;;;;;;;;;;5070907;28;20024;-76
2023/06/07 00:31:56;;;;;;;8.40;4.55;;;;;;;;;;5069047;28;20032;-76
2023/06/07 00:34:21;;;;;;;6.15;4.22;;;;;;;;;;5070711;28;20044;-76
2023/06/07 00:36:47;;;;;;;9.18;4.70;;;;;;;;;;5069441;28;20017;-76
2023/06/07 00:39:13;;;;;;;6.40;4.10;;;;;;;;;;5071413;28;20119;-76
2023/06/07 00:41:38;;;;;;;5.93;4.03;;;;;;;;;;5071478;28;20029;-76
2023/06/07 00:44:04;;;;;;;6.13;4.22;;;;;;;;;;5070549;28;20423;-76
2023/06/07 00:46:30;;;;;;;11.27;4.00;;;;;;;;;;5070718;28;20399;-76
2023/06/07 00:48:57;;;;;;;8.15;4.47;;;;;;;;;;5071293;28;20024;-76
2023/06/07 00:51:22;;;;;;;6.68;4.25;;;;;;;;;;5070982;28;20052;-75
2023/06/07 00:53:51;;;;;;;6.85;4.25;;;;;;;;;;5068948;28;20094;-76
2023/06/07 00:56:17;;;;;;;9.27;4.43;;;;;;;;;;5070329;28;20032;-75
2023/06/07 00:58:46;;;;;;;13.07;4.22;;;;;;;;;;5070874;28;20033;-76
2023/06/07 01:01:12;;;;;;;7.40;4.25;;;;;;;;;;5070328;28;20549;-76
2023/06/07 01:03:38;;;;;;;7.90;4.30;;;;;;;;;;5070035;28;20024;-76
2023/06/07 01:06:05;;;;;;;6.93;4.30;;;;;;;;;;5069856;28;20116;-75
2023/06/07 01:08:31;;;;;;;7.18;4.05;;;;;;;;;;5070380;28;20020;-76
2023/06/07 01:11:01;;;;;;;5.47;3.88;;;;;;;;;;5070963;28;20055;-76
2023/06/07 01:13:28;;;;;;;5.90;4.28;;;;;;;;;;5070498;28;20032;-76
2023/06/07 01:15:53;;;;;;;5.65;4.05;;;;;;;;;;5070524;28;20043;-76
2023/06/07 01:18:19;;;;;;;6.22;3.95;;;;;;;;;;5071040;28;20024;-76
2023/06/07 01:20:54;;;;;;;7.18;3.97;;;;;;;;;;5070208;28;20092;-76
2023/06/07 01:23:28;;;;;;;7.93;4.68;;;;;;;;;;5067999;28;20117;-76
2023/06/07 01:25:57;;;;;;;9.35;4.13;;;;;;;;;;5068820;28;20115;-76
2023/06/07 01:28:24;;;;;;;9.32;4.50;;;;;;;;;;5070240;28;20028;-76
2023/06/07 01:30:50;;;;;;;12.13;4.18;;;;;;;;;;5069682;28;20021;-76
2023/06/07 01:33:16;;;;;;;5.30;4.22;;;;;;;;;;5070240;28;20060;-76
2023/06/07 01:35:44;;;;;;;8.82;4.57;;;;;;;;;;5068982;28;20020;-76
2023/06/07 01:38:10;;;;;;;6.07;4.18;;;;;;;;;;5069355;28;20694;-75
2023/06/07 01:40:37;;;;;;;6.70;3.95;;;;;;;;;;5069281;28;20471;-76
2023/06/07 01:43:04;;;;;;;5.85;4.10;;;;;;;;;;5068478;28;20203;-75
2023/06/07 01:45:30;;;;;;;7.75;4.18;;;;;;;;;;5069102;28;20055;-75
2023/06/07 01:47:56;;;;;;;8.18;4.68;;;;;;;;;;5069629;28;20024;-76
2023/06/07 01:50:22;;;;;;;10.43;4.32;;;;;;;;;;5069881;28;20028;-75
2023/06/07 01:52:48;;;;;;;7.68;4.32;;;;;;;;;;5069790;28;20044;-75
2023/06/07 01:55:13;;;;;;;9.63;4.57;;;;;;;;;;5069978;28;20105;-76
2023/06/07 01:58:12;;;;;;;10.15;4.57;;;;;;;;;;5069989;28;20032;-76
2023/06/07 02:00:45;;;;;;;8.57;4.47;;;;;;;;;;5069049;28;20021;-76
2023/06/07 02:03:26;;;;;;;7.18;4.50;;;;;;;;;;5069642;28;20633;-75
2023/06/07 02:05:57;;;;;;;6.13;4.03;;;;;;;;;;5070051;28;20017;-75
2023/06/07 02:08:30;;;;;;;8.68;4.38;;;;;;;;;;5069376;28;20059;-75
2023/06/07 02:10:57;;;;;;;8.25;4.30;;;;;;;;;;5069249;28;20021;-76
2023/06/07 02:13:23;;;;;;;9.55;4.35;;;;;;;;;;5068678;28;20052;-75
2023/06/07 02:15:48;;;;;;;7.47;4.55;;;;;;;;;;5068627;28;20616;-76
2023/06/07 02:18:18;;;;;;;8.85;4.30;;;;;;;;;;5069478;28;20032;-75
2023/06/07 02:20:44;;;;;;;6.70;4.40;;;;;;;;;;5069186;28;20090;-76
2023/06/07 02:23:09;;;;;;;8.13;4.15;;;;;;;;;;5068989;28;20020;-76
2023/06/07 02:25:35;;;;;;;9.95;4.53;;;;;;;;;;5068611;28;20107;-76
2023/06/07 02:28:01;;;;;;;6.30;4.32;;;;;;;;;;5068583;28;20048;-76
2023/06/07 02:30:27;;;;;;;9.57;4.47;;;;;;;;;;5067510;28;20081;-76
2023/06/07 02:32:53;;;;;;;8.40;4.38;;;;;;;;;;5068519;28;20024;-75
2023/06/07 02:35:20;;;;;;;8.60;4.28;;;;;;;;;;5068282;28;20035;-76
2023/06/07 02:37:45;;;;;;;6.45;4.55;;;;;;;;;;5068280;28;20025;-75
2023/06/07 02:40:12;;;;;;;10.35;4.35;;;;;;;;;;5068221;28;20040;-75
2023/06/07 02:42:38;;;;;;;7.60;4.90;;;;;;;;;;5068259;28;20035;-75
2023/06/07 02:45:04;;;;;;;8.23;4.75;;;;;;;;;;5068460;28;20028;-76
2023/06/07 02:47:30;;;;;;;7.55;4.40;;;;;;;;;;5068243;28;20020;-76
2023/06/07 02:49:57;;;;;;;8.18;3.97;;;;;;;;;;5068608;28;20028;-75
2023/06/07 02:52:22;;;;;;;6.80;4.25;;;;;;;;;;5068797;28;20423;-76
2023/06/07 02:54:48;;;;;;;7.05;4.07;;;;;;;;;;5068524;28;20536;-76
2023/06/07 02:57:14;;;;;;;8.07;4.50;;;;;;;;;;5068436;28;20028;-76
2023/06/07 02:59:40;;;;;;;5.88;3.88;;;;;;;;;;5068381;28;20025;-75
2023/06/07 03:02:06;;;;;;;7.60;4.30;;;;;;;;;;5067783;28;20024;-76
2023/06/07 03:04:31;;;;;;;6.93;4.47;;;;;;;;;;5068527;28;20168;-75
2023/06/07 03:06:58;;;;;;;8.65;4.32;;;;;;;;;;5068307;28;20024;-75
2023/06/07 03:09:24;;;;;;;6.93;4.32;;;;;;;;;;5068636;28;20029;-75
2023/06/07 03:11:50;;;;;;;10.35;4.47;;;;;;;;;;5067188;28;20130;-75
2023/06/07 03:14:18;;;;;;;8.55;4.38;;;;;;;;;;5068443;28;20499;-76
2023/06/07 03:16:44;;;;;;;8.57;4.82;;;;;;;;;;5068100;28;20058;-76
2023/06/07 03:19:10;;;;;;;7.93;4.70;;;;;;;;;;5067997;28;20530;-76
2023/06/07 03:21:38;;;;;;;9.10;4.60;;;;;;;;;;5067141;28;20067;-76
2023/06/07 03:24:04;;;;;;;10.63;4.75;;;;;;;;;;5067579;28;20021;-76
2023/06/07 03:26:31;;;;;;;11.23;4.55;;;;;;;;;;5067434;28;20443;-75
2023/06/07 03:28:56;;;;;;;7.45;4.32;;;;;;;;;;5067481;28;20028;-76
2023/06/07 03:31:23;;;;;;;6.40;3.95;;;;;;;;;;5067200;28;20070;-75
2023/06/07 03:33:48;;;;;;;9.13;4.50;;;;;;;;;;5067268;28;20035;-76
2023/06/07 03:36:20;;;;;;;9.32;4.57;;;;;;;;;;5067801;28;20024;-76
2023/06/07 03:38:46;;;;;;;8.48;4.63;;;;;;;;;;5067831;28;20078;-76
2023/06/07 03:41:11;;;;;;;7.68;4.53;;;;;;;;;;5068139;28;20662;-75
2023/06/07 03:43:37;;;;;;;11.82;4.25;;;;;;;;;;5067798;28;20074;-76
2023/06/07 03:46:02;;;;;;;7.10;4.03;;;;;;;;;;5067187;28;20036;-75
2023/06/07 03:48:28;;;;;;;7.45;4.50;;;;;;;;;;5066967;28;20032;-76
2023/06/07 03:50:53;;;;;;;10.15;4.63;;;;;;;;;;5067862;28;20073;-76
2023/06/07 03:53:18;;;;;;;7.78;4.78;;;;;;;;;;5067763;28;20405;-75
2023/06/07 03:55:47;;;;;;;8.18;4.40;;;;;;;;;;5067471;28;20025;-75
2023/06/07 03:58:18;;;;;;;7.05;4.45;;;;;;;;;;5067296;28;20025;-75
2023/06/07 04:00:47;;;;;;;6.97;4.53;;;;;;;;;;5067741;28;20036;-76
2023/06/07 04:03:12;;;;;;;8.13;4.30;;;;;;;;;;5067634;28;20024;-75
2023/06/07 04:05:38;;;;;;;8.10;4.32;;;;;;;;;;5068079;28;20031;-76
2023/06/07 04:08:05;;;;;;;8.32;4.50;;;;;;;;;;5067448;28;20781;-76
2023/06/07 04:10:31;;;;;;;8.07;4.22;;;;;;;;;;5067845;28;20528;-76
2023/06/07 04:12:56;;;;;;;9.75;4.25;;;;;;;;;;5066954;28;20682;-75
2023/06/07 04:15:21;;;;;;;8.60;4.65;;;;;;;;;;5066002;28;20480;-76
2023/06/07 04:17:47;;;;;;;7.70;4.10;;;;;;;;;;5068017;28;20024;-75
2023/06/07 04:20:14;;;;;;;9.23;4.30;;;;;;;;;;5068029;28;20028;-76
2023/06/07 04:22:41;;;;;;;8.48;4.35;;;;;;;;;;5066229;28;20025;-76
2023/06/07 04:25:07;;;;;;;7.60;4.13;;;;;;;;;;5067050;28;20024;-75
2023/06/07 04:27:34;;;;;;;6.78;4.53;;;;;;;;;;5067694;28;20040;-76
2023/06/07 04:30:02;;;;;;;9.18;4.70;;;;;;;;;;5068185;28;20392;-76
2023/06/07 04:32:28;;;;;;;6.40;4.40;;;;;;;;;;5067613;28;20023;-75
2023/06/07 04:34:55;;;;;;;6.45;4.15;;;;;;;;;;5067322;28;20117;-74
2023/06/07 04:37:20;;;;;;;8.00;4.65;;;;;;;;;;5066571;28;20032;-75
2023/06/07 04:39:49;;;;;;;9.85;4.57;;;;;;;;;;5065412;28;20044;-75
2023/06/07 04:42:16;;;;;;;6.35;4.20;;;;;;;;;;5066963;28;20066;-75
2023/06/07 04:44:42;;;;;;;10.40;4.30;;;;;;;;;;5066922;28;20024;-75
2023/06/07 04:47:09;;;;;;;9.00;4.75;;;;;;;;;;5066425;28;20052;-75
2023/06/07 04:49:35;;;;;;;6.78;4.55;;;;;;;;;;5067439;28;20028;-75
2023/06/07 04:52:02;;;;;;;8.63;4.68;;;;;;;;;;5065768;28;20531;-74
2023/06/07 04:54:29;;;;;;;7.47;4.55;;;;;;;;;;5067502;28;20056;-75
2023/06/07 04:56:56;;;;;;;6.10;4.45;;;;;;;;;;5067039;28;20401;-75
2023/06/07 04:59:23;;;;;;;6.45;4.20;;;;;;;;;;5067515;28;20635;-75
2023/06/07 05:01:48;;;;;;;5.50;4.32;;;;;;;;;;5070682;28;20059;-75
2023/06/07 05:04:16;;;;;;;7.68;4.25;;;;;;;;;;5070597;28;20071;-75
2023/06/07 05:06:42;;;;;;;8.13;5.07;;;;;;;;;;5070680;28;20028;-75
2023/06/07 05:09:07;;;;;;;8.80;4.50;;;;;;;;;;5069901;28;20108;-76
2023/06/07 05:11:33;;;;;;;7.00;4.53;;;;;;;;;;5070337;28;20455;-75
2023/06/07 05:13:58;;;;;;;7.55;4.35;;;;;;;;;;5070199;28;20059;-75
2023/06/07 05:16:24;;;;;;;7.55;4.43;;;;;;;;;;5070635;28;20484;-75
2023/06/07 05:18:50;;;;;;;10.20;4.75;;;;;;;;;;5070460;28;20496;-76
2023/06/07 05:21:17;;;;;;;6.55;4.47;;;;;;;;;;5070533;28;20094;-76
2023/06/07 05:23:43;;;;;;;7.72;4.63;;;;;;;;;;5069753;28;20103;-75
2023/06/07 05:26:08;;;;;;;10.10;4.50;;;;;;;;;;5069724;28;20039;-75
2023/06/07 05:28:35;;;;;;;8.80;5.00;;;;;;;;;;5069755;28;20040;-75
2023/06/07 05:31:01;;;;;;;7.80;4.68;;;;;;;;;;5069920;28;20103;-75
2023/06/07 05:33:30;;;;;;;8.40;4.80;;;;;;;;;;5069081;28;20025;-75
2023/06/07 05:35:56;;;;;;;8.30;4.90;;;;;;;;;;5069723;28;20016;-75
2023/06/07 05:38:21;;;;;;;8.50;5.20;;;;;;;;;;5069377;28;20054;-76
2023/06/07 05:40:47;;;;;;;7.53;4.70;;;;;;;;;;5070538;28;20090;-76
2023/06/07 05:43:12;;;;;;;9.18;4.90;;;;;;;;;;5070018;28;20036;-75
2023/06/07 05:45:40;;;;;;;9.80;4.40;;;;;;;;;;5069529;28;20021;-76
2023/06/07 05:48:06;;;;;;;7.80;5.32;;;;;;;;;;5069102;28;20036;-75
2023/06/07 05:50:32;;;;;;;8.45;4.75;;;;;;;;;;5070314;28;20077;-76
2023/06/07 05:52:57;;;;;;;8.48;4.63;;;;;;;;;;5069448;28;20032;-76
2023/06/07 05:55:28;;;;;;;9.65;4.60;;;;;;;;;;5069022;28;20025;-75
2023/06/07 05:57:55;;;;;;;8.30;4.85;;;;;;;;;;5069207;28;20077;-75
2023/06/07 06:00:20;;;;;;;7.97;4.88;;;;;;;;;;5069457;28;20040;-76
2023/06/07 06:02:46;;;;;;;10.65;5.18;;;;;;;;;;5069087;28;20481;-75
2023/06/07 06:05:12;;;;;;;9.13;5.18;;;;;;;;;;5068970;28;20447;-75
2023/06/07 06:07:38;;;;;;;9.00;4.55;;;;;;;;;;5068621;28;20036;-75
2023/06/07 06:10:04;;;;;;;9.57;5.47;;;;;;;;;;5069359;28;20028;-76
2023/06/07 06:12:31;;;;;;;8.88;5.22;;;;;;;;;;5068960;28;20059;-75
2023/06/07 06:14:56;;;;;;;7.78;5.07;;;;;;;;;;5068446;28;20024;-76
2023/06/07 06:17:22;;;;;;;8.80;5.25;;;;;;;;;;5069665;28;20040;-76
2023/06/07 06:19:48;;;;;;;7.57;4.72;;;;;;;;;;5069253;28;20023;-75
2023/06/07 06:22:13;;;;;;;9.27;4.90;;;;;;;;;;5069337;28;20034;-75
2023/06/07 06:24:39;;;;;;;11.00;5.20;;;;;;;;;;5068728;28;20131;-75
2023/06/07 06:27:06;;;;;;;10.48;5.10;;;;;;;;;;5067728;28;20514;-75
2023/06/07 06:29:32;;;;;;;7.32;4.80;;;;;;;;;;5069711;28;20031;-76
2023/06/07 06:31:57;;;;;;;13.50;5.38;;;;;;;;;;5068856;28;20111;-76
2023/06/07 06:34:23;;;;;;;8.85;5.07;;;;;;;;;;5068553;28;20028;-76
2023/06/07 06:36:49;;;;;;;11.77;5.57;;;;;;;;;;5068630;28;20024;-75
2023/06/07 06:39:14;;;;;;;10.00;5.10;;;;;;;;;;5068848;28;20059;-76
2023/06/07 06:41:40;;;;;;;8.95;5.07;;;;;;;;;;5069275;28;20024;-76
2023/06/07 06:44:05;;;;;;;8.73;4.97;;;;;;;;;;5068350;28;20020;-75
2023/06/07 06:46:31;;;;;;;10.38;5.50;;;;;;;;;;5067944;28;20469;-76
2023/06/07 06:48:56;;;;;;;6.70;5.40;;;;;;;;;;5066764;28;20040;-75
2023/06/07 06:51:22;;;;;;;9.77;5.03;;;;;;;;;;5068598;28;20369;-76
2023/06/07 06:53:47;;;;;;;9.70;5.40;;;;;;;;;;5068636;28;20120;-75
2023/06/07 06:56:13;;;;;;;7.50;4.93;;;;;;;;;;5068975;28;20035;-76
2023/06/07 06:58:38;;;;;;;7.85;5.00;;;;;;;;;;5068442;28;20024;-75
2023/06/07 07:01:07;;;;;;;7.22;5.35;;;;;;;;;;5068119;28;20028;-76
2023/06/07 07:03:33;;;;;;;12.05;4.60;;;;;;;;;;5067828;28;20024;-75
2023/06/07 07:05:58;;;;;;;9.05;4.70;;;;;;;;;;5068135;28;20040;-75
2023/06/07 07:08:25;;;;;;;8.60;4.72;;;;;;;;;;5068000;28;20090;-75
2023/06/07 07:10:50;;;;;;;5.75;4.13;;;;;;;;;;5068368;28;20032;-76
2023/06/07 07:13:16;;;;;;;9.18;4.53;;;;;;;;;;5067769;28;20392;-76
2023/06/07 07:15:41;;;;;;;6.90;4.20;;;;;;;;;;5068398;28;20029;-76
2023/06/07 07:18:08;;;;;;;5.68;3.95;;;;;;;;;;5068299;28;20028;-76
2023/06/07 07:20:33;;;;;;;8.43;4.50;;;;;;;;;;5067735;28;20021;-75
2023/06/07 07:23:01;;;;;;;6.90;4.22;;;;;;;;;;5066905;28;20041;-75
2023/06/07 07:25:27;;;;;;;6.82;4.70;;;;;;;;;;5067132;28;20063;-75
2023/06/07 07:27:53;;;;;;;7.13;4.50;;;;;;;;;;5067652;28;20064;-77
2023/06/07 07:30:18;;;;;;;7.13;4.65;;;;;;;;;;5067388;28;20024;-76
2023/06/07 07:32:44;;;;;;;9.40;4.65;;;;;;;;;;5067638;28;20158;-76
2023/06/07 07:35:10;;;;;;;7.30;4.95;;;;;;;;;;5067114;28;20024;-76
2023/06/07 07:37:35;;;;;;;7.55;4.10;;;;;;;;;;5066790;28;20020;-76
2023/06/07 07:40:01;;;;;;;5.90;4.18;;;;;;;;;;5067234;28;20040;-76
2023/06/07 07:42:28;;;;;;;6.38;4.40;;;;;;;;;;5067539;28;20146;-75
2023/06/07 07:44:53;;;;;;;7.68;4.00;;;;;;;;;;5067830;28;20491;-76
2023/06/07 07:47:18;;;;;;;9.15;4.20;;;;;;;;;;5067638;28;20494;-75
2023/06/07 07:49:44;;;;;;;9.18;4.60;;;;;;;;;;5067545;28;20024;-75
2023/06/07 07:52:10;;;;;;;6.10;4.20;;;;;;;;;;5067055;28;20021;-75
2023/06/07 07:54:36;;;;;;;8.05;4.38;;;;;;;;;;5067657;28;20025;-76
2023/06/07 07:57:01;;;;;;;9.48;3.72;;;;;;;;;;5067906;28;20107;-76
2023/06/07 07:59:26;;;;;;;6.55;4.20;;;;;;;;;;5068041;28;20081;-76
2023/06/07 08:01:52;;;;;;;5.60;3.85;;;;;;;;;;5068178;28;20024;-75
2023/06/07 08:04:18;;;;;;;5.95;4.10;;;;;;;;;;5068107;28;20028;-75
2023/06/07 08:06:45;;;;;;;5.28;3.70;;;;;;;;;;5067527;28;20027;-75
2023/06/07 08:09:10;;;;;;;5.47;3.90;;;;;;;;;;5066535;28;20050;-74
2023/06/07 08:11:36;;;;;;;6.32;3.90;;;;;;;;;;5056072;28;20028;-74
2023/06/07 08:14:02;;;;;;;7.60;3.60;;;;;;;;;;5046286;28;20029;-75
2023/06/07 08:16:27;;;;;;;5.68;3.85;;;;;;;;;;5046738;28;20032;-75
2023/06/07 08:18:57;;;;;;;6.53;3.33;;;;;;;;;;5047225;28;20065;-75
2023/06/07 08:21:23;;;;;;;7.00;3.33;;;;;;;;;;5046806;28;20053;-75
2023/06/07 08:23:49;;;;;;;6.75;3.50;;;;;;;;;;5045893;28;20024;-75
2023/06/07 08:26:15;;;;;;;3.85;3.13;;;;;;;;;;5047131;28;20476;-76
2023/06/07 08:28:42;;;;;;;4.57;3.20;;;;;;;;;;5045914;28;20086;-75
2023/06/07 08:31:10;;;;;;;4.93;3.10;;;;;;;;;;5047362;28;20036;-76
2023/06/07 08:33:36;;;;;;;5.20;3.53;;;;;;;;;;5047659;28;20028;-76
2023/06/07 08:36:01;;;;;;;5.88;3.33;;;;;;;;;;5050855;28;20025;-75
2023/06/07 08:38:27;;;;;;;6.25;3.65;;;;;;;;;;5051442;28;20067;-76
2023/06/07 08:40:54;;;;;;;5.18;3.05;;;;;;;;;;5051255;28;20083;-76
2023/06/07 08:43:20;;;;;;;8.20;3.65;;;;;;;;;;5051191;28;20013;-76
2023/06/07 08:45:46;;;;;;;5.78;3.10;;;;;;;;;;5048725;28;20032;-75
2023/06/07 08:48:12;;;;;;;5.82;3.17;;;;;;;;;;5051295;28;20021;-75
2023/06/07 08:50:38;;;;;;;5.35;2.95;;;;;;;;;;5051622;28;20031;-75
2023/06/07 08:53:17;;;;;;;3.95;2.92;;;;;;;;;;5051368;28;20420;-75
2023/06/07 08:55:44;;;;;;;6.78;3.38;;;;;;;;;;5050776;28;20021;-76
2023/06/07 08:58:10;;;;;;;8.52;3.15;;;;;;;;;;5050815;28;20020;-75
2023/06/07 09:00:36;;;;;;;6.43;2.88;;;;;;;;;;5050584;28;20025;-76
2023/06/07 09:03:02;;;;;;;5.65;3.30;;;;;;;;;;5050836;28;20612;-75
2023/06/07 09:05:27;;;;;;;6.97;2.97;;;;;;;;;;5049369;28;20450;-76
2023/06/07 09:07:53;;;;;;;5.35;3.00;;;;;;;;;;5050448;28;20021;-76
2023/06/07 09:10:18;;;;;;;6.07;2.80;;;;;;;;;;5050770;28;20627;-75
2023/06/07 09:12:47;;;;;;;4.72;2.78;;;;;;;;;;5051012;28;20082;-76
2023/06/07 09:15:19;;;;;;;4.35;2.80;;;;;;;;;;5050250;28;20090;-75
2023/06/07 09:18:02;;;;;;;5.28;2.90;;;;;;;;;;5049787;28;20575;-75
2023/06/07 09:20:31;;;;;;;5.55;2.58;;;;;;;;;;5049968;28;20056;-75
2023/06/07 09:23:04;;;;;;;3.85;2.60;;;;;;;;;;5049067;28;20064;-76
2023/06/07 09:25:30;;;;;;;4.55;2.88;;;;;;;;;;5050116;28;20032;-76
2023/06/07 09:27:56;;;;;;;4.93;2.80;;;;;;;;;;5049912;28;20075;-75
2023/06/07 09:30:22;;;;;;;5.38;2.88;;;;;;;;;;5049943;28;20064;-75
2023/06/07 09:32:48;;;;;;;5.88;3.00;;;;;;;;;;5050702;28;20031;-75
2023/06/07 09:35:15;;;;;;;5.47;3.00;;;;;;;;;;5050559;28;20104;-75
2023/06/07 09:37:45;;;;;;;4.13;2.55;;;;;;;;;;5050429;28;20021;-76
2023/06/07 09:40:13;;;;;;;4.88;2.60;;;;;;;;;;5049608;28;20048;-76
2023/06/07 09:42:39;;;;;;;4.13;2.78;;;;;;;;;;5049717;28;20112;-75
2023/06/07 09:45:17;;;;;;;4.82;2.90;;;;;;;;;;5049250;28;20385;-75
2023/06/07 09:47:43;;;;;;;3.45;2.58;;;;;;;;;;5049973;28;20027;-76
2023/06/07 09:50:13;;;;;;;4.45;2.63;;;;;;;;;;5048253;28;20110;-75
2023/06/07 09:52:39;;;;;;;5.10;2.80;;;;;;;;;;5049117;28;20485;-75
2023/06/07 09:55:07;;;;;;;5.18;2.80;;;;;;;;;;5049159;28;20060;-75
2023/06/07 09:57:37;;;;;;;4.68;2.90;;;;;;;;;;5049033;28;20121;-76
2023/06/07 10:00:14;;;;;;;3.80;2.20;;;;;;;;;;5049778;28;20025;-76
2023/06/07 10:02:44;;;;;;;4.13;2.40;;;;;;;;;;5049048;28;20029;-76
2023/06/07 10:05:12;;;;;;;3.38;2.53;;;;;;;;;;5049631;28;20056;-76
2023/06/07 10:07:49;;;;;;;4.22;2.40;;;;;;;;;;5048888;28;20074;-76
2023/06/07 10:10:19;;;;;;;4.88;2.80;;;;;;;;;;5049279;28;20674;-76
2023/06/07 10:12:46;;;;;;;4.90;2.35;;;;;;;;;;5049654;28;20063;-75
2023/06/07 10:15:20;;;;;;;3.95;2.88;;;;;;;;;;5049274;28;20029;-76
2023/06/07 10:17:50;;;;;;;4.40;2.50;;;;;;;;;;5048594;28;20025;-76
2023/06/07 10:20:51;;;;;;;5.53;2.45;;;;;;;;;;5047687;28;20086;-76
2023/06/07 10:23:26;;;;;;;4.75;2.45;;;;;;;;;;5044514;28;20045;-76
2023/06/07 10:25:59;;;;;;;3.75;2.63;;;;;;;;;;5049277;28;20028;-75
2023/06/07 10:28:37;;;;;;;4.72;2.60;;;;;;;;;;5049966;28;20021;-76
2023/06/07 10:31:07;;;;;;;4.30;2.30;;;;;;;;;;5049150;28;20028;-75
2023/06/07 10:33:33;;;;;;;3.97;2.40;;;;;;;;;;5049284;28;20116;-76
2023/06/07 10:35:59;;;;;;;6.65;2.60;;;;;;;;;;5048624;28;20124;-76
2023/06/07 10:38:29;;;;;;;3.80;2.30;;;;;;;;;;5048106;28;20108;-76
2023/06/07 10:40:57;;;;;;;4.65;2.63;;;;;;;;;;5049138;28;20070;-75
2023/06/07 10:43:26;;;;;;;4.43;2.35;;;;;;;;;;5049168;28;20032;-76
2023/06/07 10:46:17;;;;;;;4.05;2.60;;;;;;;;;;5048338;28;20032;-76
2023/06/07 10:48:45;;;;;;;2.83;2.30;;;;;;;;;;5048429;28;20056;-76
2023/06/07 10:51:15;;;;;;;3.67;2.38;;;;;;;;;;5048809;28;20033;-76
2023/06/07 10:53:57;;;;;;;6.57;2.53;;;;;;;;;;5048770;28;20029;-75
2023/06/07 10:56:30;;;;;;;3.45;2.60;;;;;;;;;;5047830;28;20041;-76
2023/06/07 10:59:16;;;;;;;5.03;2.38;;;;;;;;;;5046716;28;20029;-76
2023/06/07 11:01:54;;;;;;;4.28;2.90;;;;;;;;;;5048671;28;20049;-76
2023/06/07 11:04:35;;;;;;;5.75;2.50;;;;;;;;;;5048274;28;20400;-76
2023/06/07 11:07:23;;;;;;;3.17;2.42;;;;;;;;;;5047247;28;20463;-75
2023/06/07 11:10:09;;;;;;;6.00;2.50;;;;;;;;;;5049347;28;20070;-76
2023/06/07 11:12:34;;;;;;;3.10;2.55;;;;;;;;;;5047817;28;20460;-75
2023/06/07 11:15:35;;;;;;;5.05;2.38;;;;;;;;;;5048113;28;20476;-76
2023/06/07 11:18:10;;;;;;;3.78;2.65;;;;;;;;;;5047445;28;20029;-75
2023/06/07 11:20:36;;;;;;;5.53;2.67;;;;;;;;;;5048347;28;20037;-76
2023/06/07 11:23:26;;;;;;;3.90;2.42;;;;;;;;;;5048292;28;20481;-75
2023/06/07 11:25:55;;;;;;;9.85;2.70;;;;;;;;;;5047932;28;20040;-76
2023/06/07 11:28:29;;;;;;;4.45;2.38;;;;;;;;;;5047540;28;20158;-76
2023/06/07 11:30:55;;;;;;;3.97;2.25;;;;;;;;;;5046955;28;20176;-76
2023/06/07 11:33:24;;;;;;;3.72;2.22;;;;;;;;;;5047754;28;20025;-75
2023/06/07 11:35:50;;;;;;;5.93;2.50;;;;;;;;;;5047633;28;20048;-76
2023/06/07 11:38:16;;;;;;;4.18;2.30;;;;;;;;;;5047230;28;20021;-75
2023/06/07 11:40:46;;;;;;;7.78;2.30;;;;;;;;;;5048598;28;20059;-76
2023/06/07 11:43:12;;;;;;;4.53;2.60;;;;;;;;;;5047710;28;20551;-76
2023/06/07 11:45:43;;;;;;;3.08;2.20;;;;;;;;;;5047407;28;20029;-75
2023/06/07 11:48:10;;;;;;;4.13;2.40;;;;;;;;;;5047518;28;20056;-76
2023/06/07 11:50:40;;;;;;;3.75;2.40;;;;;;;;;;5048435;28;20380;-76
2023/06/07 11:53:09;;;;;;;4.15;2.20;;;;;;;;;;5048167;28;20029;-76
2023/06/07 11:55:36;;;;;;;4.97;2.50;;;;;;;;;;5048392;28;20099;-76
2023/06/07 11:58:02;;;;;;;5.68;2.40;;;;;;;;;;5047545;28;20032;-76
2023/06/07 12:00:30;;;;;;;3.05;2.33;;;;;;;;;;5047349;28;20029;-76
2023/06/07 12:02:57;;;;;;;3.58;1.83;;;;;;;;;;5047125;28;20033;-76
2023/06/07 12:05:30;;;;;;;4.82;2.05;;;;;;;;;;5047333;28;20424;-75
2023/06/07 12:08:04;;;;;;;4.70;2.10;;;;;;;;;;5046802;28;20539;-76
2023/06/07 12:10:31;;;;;;;5.18;2.30;;;;;;;;;;5052108;28;20111;-76
2023/06/07 12:13:07;;;;;;;3.22;2.08;;;;;;;;;;5051399;28;20108;-76
2023/06/07 12:15:34;;;;;;;3.80;1.90;;;;;;;;;;5051497;28;20025;-76
2023/06/07 12:18:00;;;;;;;3.08;2.05;;;;;;;;;;5050973;28;20337;-76
2023/06/07 12:20:28;;;;;;;3.88;1.98;;;;;;;;;;5051313;28;20029;-76
2023/06/07 12:23:02;;;;;;;3.80;2.03;;;;;;;;;;5050608;28;20506;-76
2023/06/07 12:25:28;;;;;;;3.10;1.90;;;;;;;;;;5051449;28;20059;-76
2023/06/07 12:27:54;;;;;;;3.17;1.92;;;;;;;;;;5050734;28;20685;-76
2023/06/07 12:30:20;;;;;;;3.40;1.90;;;;;;;;;;5051397;28;20055;-76
2023/06/07 12:32:46;;;;;;;5.32;2.63;;;;;;;;;;5050523;28;20053;-76
2023/06/07 12:35:12;;;;;;;3.10;1.92;;;;;;;;;;5051119;28;20052;-76
2023/06/07 12:37:37;;;;;;;2.88;2.00;;;;;;;;;;5050447;28;20021;-76
2023/06/07 12:40:05;;;;;;;4.85;2.17;;;;;;;;;;5050589;28;20040;-76
2023/06/07 12:42:32;;;;;;;4.13;1.92;;;;;;;;;;5050503;28;20041;-75
2023/06/07 12:44:58;;;;;;;3.20;1.95;;;;;;;;;;5051806;28;20108;-77
2023/06/07 12:47:23;;;;;;;3.13;1.90;;;;;;;;;;5051336;28;20115;-76
2023/06/07 12:49:49;;;;;;;5.28;1.70;;;;;;;;;;5050154;28;20500;-75
2023/06/07 12:52:14;;;;;;;4.38;1.80;;;;;;;;;;5051035;28;20033;-75
2023/06/07 12:54:40;;;;;;;3.88;1.90;;;;;;;;;;5051123;28;20565;-75
2023/06/07 12:57:06;;;;;;;3.03;1.90;;;;;;;;;;5051202;28;20099;-76
2023/06/07 12:59:31;;;;;;;2.50;2.05;;;;;;;;;;5051242;28;20044;-76
2023/06/07 13:01:57;;;;;;;4.55;2.10;;;;;;;;;;5050876;28;20058;-76
2023/06/07 13:04:23;;;;;;;5.28;1.90;;;;;;;;;;5050087;28;20025;-76
2023/06/07 13:06:49;;;;;;;4.68;2.10;;;;;;;;;;5050874;28;20035;-76
2023/06/07 13:09:14;;;;;;;4.70;1.90;;;;;;;;;;5050086;28;20074;-76
2023/06/07 13:11:41;;;;;;;4.95;1.90;;;;;;;;;;5050083;28;20032;-76
2023/06/07 13:14:07;;;;;;;5.70;2.10;;;;;;;;;;5049804;28;20025;-76
2023/06/07 13:16:33;;;;;;;5.28;2.13;;;;;;;;;;5049997;28;20028;-76
2023/06/07 13:19:00;;;;;;;3.65;1.80;;;;;;;;;;5049849;28;20021;-76
2023/06/07 13:21:28;;;;;;;3.40;1.80;;;;;;;;;;5049745;28;20051;-76
2023/06/07 13:23:53;;;;;;;3.60;1.92;;;;;;;;;;5050445;28;20039;-76
2023/06/07 13:26:19;;;;;;;4.40;1.80;;;;;;;;;;5050162;28;20021;-77
2023/06/07 13:28:46;;;;;;;2.22;1.70;;;;;;;;;;5049598;28;20542;-76
2023/06/07 13:31:12;;;;;;;3.75;1.90;;;;;;;;;;5050094;28;20029;-76
2023/06/07 13:33:37;;;;;;;5.88;1.83;;;;;;;;;;5049766;28;20377;-75
2023/06/07 13:36:03;;;;;;;4.10;1.70;;;;;;;;;;5050141;28;20075;-75
2023/06/07 13:38:28;;;;;;;5.63;1.70;;;;;;;;;;5049100;28;20377;-76
2023/06/07 13:40:54;;;;;;;4.13;1.80;;;;;;;;;;5049761;28;20033;-76
2023/06/07 13:43:19;;;;;;;3.78;1.85;;;;;;;;;;5049762;28;20484;-76
2023/06/07 13:45:45;;;;;;;3.67;1.80;;;;;;;;;;5049629;28;20068;-76
2023/06/07 13:48:11;;;;;;;4.25;1.92;;;;;;;;;;5049470;28;20033;-76
2023/06/07 13:50:40;;;;;;;7.20;1.88;;;;;;;;;;5048657;28;20132;-76
2023/06/07 13:53:05;;;;;;;3.78;1.67;;;;;;;;;;5049584;28;20032;-76
2023/06/07 13:55:31;;;;;;;2.83;1.40;;;;;;;;;;5049827;28;20036;-76
2023/06/07 13:57:57;;;;;;;4.20;1.50;;;;;;;;;;5049664;28;20689;-76
2023/06/07 14:00:23;;;;;;;2.97;1.65;;;;;;;;;;5049907;28;20466;-75
2023/06/07 14:02:49;;;;;;;3.38;1.60;;;;;;;;;;5049497;28;20516;-76
2023/06/07 14:05:15;;;;;;;4.35;1.80;;;;;;;;;;5049951;28;20021;-76
2023/06/07 14:07:41;;;;;;;4.75;1.50;;;;;;;;;;5047800;28;20477;-76
2023/06/07 14:10:07;;;;;;;3.67;1.80;;;;;;;;;;5049014;28;20036;-76
2023/06/07 14:12:33;;;;;;;3.25;1.75;;;;;;;;;;5049132;28;20022;-77
2023/06/07 14:14:59;;;;;;;6.57;1.70;;;;;;;;;;5049305;28;20074;-76
2023/06/07 14:17:24;;;;;;;2.60;1.60;;;;;;;;;;5050038;28;20048;-75
2023/06/07 14:19:50;;;;;;;5.35;1.60;;;;;;;;;;5049631;28;20032;-76
2023/06/07 14:22:15;;;;;;;3.17;1.75;;;;;;;;;;5048801;28;20059;-76
2023/06/07 14:24:41;;;;;;;3.45;1.75;;;;;;;;;;5047376;28;20025;-76
2023/06/07 14:27:10;;;;;;;4.00;1.70;;;;;;;;;;5049659;28;20025;-75
2023/06/07 14:29:36;;;;;;;3.17;1.60;;;;;;;;;;5048986;28;20473;-76
2023/06/07 14:32:01;;;;;;;3.10;2.00;;;;;;;;;;5048509;28;20077;-75
2023/06/07 14:34:26;;;;;;;2.65;1.67;;;;;;;;;;5049204;28;20495;-76
2023/06/07 14:36:52;;;;;;;5.63;1.83;;;;;;;;;;5048597;28;20059;-76
2023/06/07 14:39:17;;;;;;;6.22;1.88;;;;;;;;;;5048192;28;20067;-76
2023/06/07 14:41:43;;;;;;;2.05;1.30;;;;;;;;;;5048644;28;20114;-76
2023/06/07 14:44:09;;;;;;;4.32;1.60;;;;;;;;;;5048541;28;20025;-76